• Join FlightAware (Why Join?)
  • Login
  • US Flag 
06:18PM EDT


 

Airport Tracker/Info


-or-


 

Live Flight TrackerFlight Track Log ✈ N30VP ✈ 27-Oct-2013 ✈ KSSI - KOKV

Flight Track Log - Related Links

Times and Time Zones

All times are in EDT time to prevent confusion due to time zone crossing. See the N30VP flight status page for this flight to view local times or setup timezone preferences in your user account.

Time Position Orientation Groundspeed Altitude Reporting Facility
EDT Latitude Longitude Course Direction KTS MPH feet Rate Location/Type
10:47AM 31.2950 -81.3681 12° North 328 377 9,800  Level Jacksonville Center
10:48AM 31.3700 -81.3500 12° North 283 326 13,300 3,300 Climbing Jacksonville Center
10:49AM 31.4431 -81.3389 North 278 320 16,400 2,760 Climbing Jacksonville Center
10:50AM 31.5389 -81.3178 11° North 309 356 18,900 2,280 Climbing Jacksonville Center
10:51AM 31.6283 -81.3017 North 341 392 21,000 2,040 Climbing Jacksonville Center
10:52AM 31.7450 -81.2803 North 370 426 23,000 1,380 Climbing Jacksonville Center
10:53AM 31.8575 -81.2586 North 398 458 23,800 960 Climbing Jacksonville Center
10:54AM 31.9700 -81.2369 North 424 488 25,000 900 Climbing Jacksonville Center
10:55AM 32.0886 -81.2203 North 430 495 25,600 2,400 Climbing Jacksonville Center
10:56AM 32.1953 -81.2281 356° North 405 466 29,800 2,820 Climbing Jacksonville Center
10:57AM 32.2978 -81.2361 356° North 383 441 31,300 1,620 Climbing Jacksonville Center
10:58AM 32.4022 -81.2439 356° North 377 434 33,100 1,620 Climbing Jacksonville Center
10:59AM 32.5211 -81.2492 358° North 377 434 34,600 1,380 Climbing Jacksonville Center
11:00AM 32.6194 -81.2547 357° North 385 443 35,900 1,140 Climbing Jacksonville Center
11:01AM 32.7297 -81.2331 North 385 443 36,900 600 Climbing Jacksonville Center
11:02AM 32.8439 -81.1864 19° North 404 465 37,200 600 Climbing Jacksonville Center
11:03AM 32.9561 -81.1372 20° North 417 480 38,200 780 Climbing Jacksonville Center
11:04AM 33.0700 -81.0906 19° North 423 487 38,800 360 Climbing Jacksonville Center
11:05AM 33.1842 -81.0436 19° North 423 487 39,000 60 Climbing Jacksonville Center
11:06AM 33.3003 -80.9939 20° North 428 493 39,000  Level Jacksonville Center
11:07AM 33.4269 -80.9414 19° North 428 493 39,000  Level Jacksonville Center
11:08AM 33.5431 -80.8914 20° North 433 498 39,000  Level Jacksonville Center
11:09AM 33.6569 -80.8414 20° North 433 498 39,000  Level Jacksonville Center
11:10AM 33.7750 -80.7889 20° North 443 510 39,000  Level Jacksonville Center
11:11AM 33.8889 -80.7411 19° North 443 510 39,000  Level Jacksonville Center
11:12AM 34.0050 -80.6906 20° North 443 510 39,000  Level Jacksonville Center
11:14AM 34.2694 -80.5775 19° North 435 501 39,000  Level Atlanta Center
11:15AM 34.3889 -80.5247 20° North 435 501 39,000  Level Atlanta Center
11:16AM 34.5042 -80.4694 22° Northeast 441 507 39,000  Level Atlanta Center
11:17AM 34.6175 -80.4219 19° North 441 507 39,000  Level Atlanta Center
11:18AM 34.7369 -80.3661 21° North 441 507 39,000  Level Atlanta Center
11:19AM 34.8544 -80.3156 19° North 441 507 39,000  Level Atlanta Center
11:20AM 34.9694 -80.2622 21° North 441 507 39,000  Level Atlanta Center
11:21AM 35.0869 -80.2111 20° North 441 507 39,000  Level Atlanta Center
11:22AM 35.2083 -80.1547 21° North 436 502 39,000  Level Atlanta Center
11:23AM 35.3275 -80.1033 19° North 443 510 39,000  Level Atlanta Center
11:24AM 35.4469 -80.0492 20° North 443 510 39,000  Level Atlanta Center
11:26AM 35.5572 -80.0039 18° North 435 501 39,000  Level Washington Center
11:27AM 35.6717 -79.9539 20° North 435 501 39,000  Level Washington Center
11:28AM 35.7906 -79.9017 20° North 435 501 39,000  Level Washington Center
11:29AM 35.9072 -79.8464 21° North 435 501 39,000  Level Washington Center
11:30AM 36.0217 -79.7936 20° North 435 501 39,000  Level Washington Center
11:31AM 36.1428 -79.7331 22° Northeast 435 501 39,000 -360 Level Washington Center
11:32AM 36.2594 -79.6800 20° North 435 501 38,300 -1,140 Descending Washington Center
11:33AM 36.3694 -79.6317 19° North 429 494 36,800 -1,800 Descending Washington Center
11:34AM 36.4800 -79.5753 22° Northeast 429 494 34,700 -2,100 Descending Washington Center
11:35AM 36.5900 -79.5267 20° North 424 488 32,700 -1,920 Descending Washington Center
11:36AM 36.7044 -79.4728 21° North 419 482 31,000 -1,800 Descending Washington Center
11:37AM 36.8211 -79.4189 20° North 429 494 29,100 -1,020 Descending Washington Center
11:38AM 36.9281 -79.3958 10° North 433 498 29,000 -60 Descending Washington Center
11:39AM 37.0475 -79.3783 North 428 493 29,000 -300 Level Washington Center
11:40AM 37.1639 -79.3969 353° North 422 486 28,500 -1,620 Descending Washington Center
11:42AM 37.4072 -79.4222 355° North 420 483 24,200 -1,860 Descending Washington Center
11:43AM 37.5069 -79.3697 23° Northeast 420 483 23,000 -660 Descending Washington Center
11:44AM 37.6242 -79.2864 29° Northeast 426 490 23,000  Level Washington Center
11:45AM 37.7200 -79.2175 30° Northeast 432 497 23,000 -360 Level Washington Center
11:46AM 37.8458 -79.1261 30° Northeast 432 497 22,200 -1,380 Descending Washington Center
11:47AM 37.9608 -79.0447 29° Northeast 432 497 20,100 -1,920 Descending Washington Center
11:48AM 38.0631 -78.9703 30° Northeast 432 497 18,500 -1,560 Descending Washington Center
11:49AM 38.1633 -78.8956 30° Northeast 426 490 17,000 -1,560 Descending Washington Center
11:50AM 38.2611 -78.8231 30° Northeast 416 479 15,400 -1,620 Descending Washington Center
11:51AM 38.3442 -78.7606 31° Northeast 401 461 13,900 -1,560 Descending Washington Center
11:52AM 38.4428 -78.7383 10° North 359 413 12,400 -1,440 Descending Washington Center
11:53AM 38.5406 -78.7478 356° North 359 413 11,000 -1,260 Descending Washington Center
11:54AM 38.6236 -78.7567 355° North 325 374 9,900 -1,260 Descending Washington Center
11:55AM 38.6922 -78.7650 355° North 280 322 8,600 -1,440 Descending Washington Center
11:56AM 38.7631 -78.7681 358° North 258 297 7,100 -780 Descending Washington Center
11:57AM 38.8089 -78.6872 54° Northeast 235 270 7,100 -60 Level Washington Center
11:58AM 38.8528 -78.5986 58° Northeast 253 291 7,000 -480 Descending Washington Center
11:59AM 38.8925 -78.5175 58° Northeast 265 305 6,200 -960 Descending Washington Center
12:00PM 38.9339 -78.4364 57° Northeast 270 311 5,100 -600 Descending Washington Center
12:01PM 38.9692 -78.3631 58° Northeast 257 296 5,000 -420 Descending Washington Center
12:02PM 39.0061 -78.2869 58° Northeast 252 290 4,300 -1,500 Descending Washington Center
12:03PM 39.0806 -78.2256 33° Northeast 252 290 2,100 -840 Descending Washington Center
12:04PM 39.1039 -78.2050 34° Northeast 175 201 2,700 540 Climbing Washington Center
12:05PM 39.1150 -78.1733 66° East 82 94 3,300 300 Climbing Washington Center
12:06PM 39.1014 -78.1300 112° Southeast 94 108 3,400  Climbing Washington Center
12:07PM 39.0856 -78.0892 117° Southeast 129 148 3,300 -120 Descending Washington Center
12:08PM 39.0864 -78.0464 89° East 136 157 3,200 -120 Descending Washington Center
12:10PM 39.1333 -78.1333 322° Northwest  Level FlightAware Approximate
12:17PM 39.1435 -78.1444 322° Northwest  Level Estimated
12:18PM 39.1435 -78.1444 322° Northwest  Level Estimated
12:19PM 39.1435 -78.1444 322° Northwest  Level Estimated
12:20PM 39.1435 -78.1444 322° Northwest  Level Estimated
12:21PM 39.1435 -78.1444 322° Northwest  Level Estimated
12:22PM 39.1435 -78.1444 322° Northwest  Level Estimated
12:23PM 39.1435 -78.1444 322° Northwest  Level Estimated
12:24PM 39.1435 -78.1444 322° Northwest  Level Estimated
12:25PM 39.1435 -78.1444 322° Northwest  Level Estimated
12:26PM 39.1435 -78.1444 322° Northwest  Level Estimated